sensor_id;sensor_type;location;lat;lon;timestamp;P1;durP1;ratioP1;P2;durP2;ratioP2
5678;SDS011;2862;52.560;13.566;2023-02-24T00:00:06;108.17;;;22.80;;
5678;SDS011;2862;52.560;13.566;2023-02-24T00:10:32;82.60;;;23.80;;
5678;SDS011;2862;52.560;13.566;2023-02-24T00:20:39;101.43;;;22.47;;
5678;SDS011;2862;52.560;13.566;2023-02-24T00:30:42;67.03;;;18.67;;
5678;SDS011;2862;52.560;13.566;2023-02-24T00:40:47;78.87;;;20.67;;
5678;SDS011;2862;52.560;13.566;2023-02-24T00:50:50;77.80;;;21.47;;
5678;SDS011;2862;52.560;13.566;2023-02-24T01:00:54;64.63;;;16.73;;
5678;SDS011;2862;52.560;13.566;2023-02-24T01:10:59;57.43;;;13.50;;
5678;SDS011;2862;52.560;13.566;2023-02-24T01:21:23;52.50;;;12.40;;
5678;SDS011;2862;52.560;13.566;2023-02-24T01:31:26;34.60;;;6.83;;
5678;SDS011;2862;52.560;13.566;2023-02-24T01:41:31;29.57;;;4.47;;
5678;SDS011;2862;52.560;13.566;2023-02-24T01:51:36;30.20;;;3.00;;
5678;SDS011;2862;52.560;13.566;2023-02-24T02:01:45;31.43;;;2.70;;
5678;SDS011;2862;52.560;13.566;2023-02-24T02:11:51;31.80;;;2.30;;
5678;SDS011;2862;52.560;13.566;2023-02-24T02:22:03;20.10;;;1.37;;
5678;SDS011;2862;52.560;13.566;2023-02-24T02:42:41;25.07;;;1.03;;
5678;SDS011;2862;52.560;13.566;2023-02-24T02:52:50;25.50;;;0.70;;
5678;SDS011;2862;52.560;13.566;2023-02-24T03:03:00;27.63;;;0.90;;
5678;SDS011;2862;52.560;13.566;2023-02-24T03:13:09;31.80;;;1.90;;
5678;SDS011;2862;52.560;13.566;2023-02-24T03:23:20;21.70;;;0.80;;
5678;SDS011;2862;52.560;13.566;2023-02-24T03:33:29;24.00;;;0.60;;
5678;SDS011;2862;52.560;13.566;2023-02-24T03:43:39;34.73;;;7.50;;
5678;SDS011;2862;52.560;13.566;2023-02-24T03:53:49;25.33;;;1.17;;
5678;SDS011;2862;52.560;13.566;2023-02-24T04:04:06;20.17;;;1.30;;
5678;SDS011;2862;52.560;13.566;2023-02-24T04:14:28;20.07;;;1.03;;
5678;SDS011;2862;52.560;13.566;2023-02-24T04:24:40;28.60;;;1.70;;
5678;SDS011;2862;52.560;13.566;2023-02-24T04:34:45;29.60;;;1.27;;
5678;SDS011;2862;52.560;13.566;2023-02-24T04:44:50;22.97;;;1.63;;
5678;SDS011;2862;52.560;13.566;2023-02-24T04:54:55;31.47;;;0.67;;
5678;SDS011;2862;52.560;13.566;2023-02-24T05:05:00;26.70;;;1.63;;
5678;SDS011;2862;52.560;13.566;2023-02-24T05:15:05;30.90;;;1.00;;
5678;SDS011;2862;52.560;13.566;2023-02-24T05:25:10;25.80;;;1.13;;
5678;SDS011;2862;52.560;13.566;2023-02-24T05:35:15;28.07;;;1.60;;
5678;SDS011;2862;52.560;13.566;2023-02-24T05:45:21;25.07;;;1.50;;
5678;SDS011;2862;52.560;13.566;2023-02-24T05:55:29;23.40;;;1.20;;
5678;SDS011;2862;52.560;13.566;2023-02-24T06:05:35;17.83;;;1.07;;
5678;SDS011;2862;52.560;13.566;2023-02-24T06:15:40;18.70;;;1.20;;
5678;SDS011;2862;52.560;13.566;2023-02-24T06:25:52;35.97;;;8.70;;
5678;SDS011;2862;52.560;13.566;2023-02-24T06:35:58;20.53;;;0.40;;
5678;SDS011;2862;52.560;13.566;2023-02-24T06:46:02;53.33;;;17.53;;
5678;SDS011;2862;52.560;13.566;2023-02-24T06:56:08;17.20;;;0.43;;
5678;SDS011;2862;52.560;13.566;2023-02-24T07:06:16;14.97;;;0.40;;
5678;SDS011;2862;52.560;13.566;2023-02-24T07:16:25;20.77;;;0.50;;
5678;SDS011;2862;52.560;13.566;2023-02-24T07:26:30;25.13;;;0.90;;
5678;SDS011;2862;52.560;13.566;2023-02-24T07:36:34;18.70;;;0.63;;
5678;SDS011;2862;52.560;13.566;2023-02-24T07:46:51;19.93;;;0.87;;
5678;SDS011;2862;52.560;13.566;2023-02-24T07:56:55;18.60;;;0.60;;
5678;SDS011;2862;52.560;13.566;2023-02-24T08:07:01;29.00;;;0.63;;
5678;SDS011;2862;52.560;13.566;2023-02-24T08:17:06;18.93;;;1.00;;
5678;SDS011;2862;52.560;13.566;2023-02-24T08:27:11;19.47;;;0.63;;
5678;SDS011;2862;52.560;13.566;2023-02-24T08:37:14;20.93;;;1.17;;
5678;SDS011;2862;52.560;13.566;2023-02-24T08:47:18;19.40;;;0.50;;
5678;SDS011;2862;52.560;13.566;2023-02-24T08:57:24;21.60;;;0.47;;
5678;SDS011;2862;52.560;13.566;2023-02-24T09:07:30;18.70;;;0.30;;
5678;SDS011;2862;52.560;13.566;2023-02-24T09:17:35;23.40;;;0.90;;
5678;SDS011;2862;52.560;13.566;2023-02-24T09:27:52;23.33;;;1.30;;
5678;SDS011;2862;52.560;13.566;2023-02-24T09:38:08;26.67;;;2.37;;
5678;SDS011;2862;52.560;13.566;2023-02-24T09:48:13;25.63;;;1.20;;
5678;SDS011;2862;52.560;13.566;2023-02-24T09:58:24;28.03;;;4.30;;
5678;SDS011;2862;52.560;13.566;2023-02-24T10:08:45;24.40;;;1.10;;
5678;SDS011;2862;52.560;13.566;2023-02-24T10:18:53;19.60;;;0.50;;
5678;SDS011;2862;52.560;13.566;2023-02-24T10:29:17;32.60;;;5.30;;
5678;SDS011;2862;52.560;13.566;2023-02-24T10:39:30;15.17;;;0.70;;
5678;SDS011;2862;52.560;13.566;2023-02-24T10:49:39;14.50;;;0.30;;
5678;SDS011;2862;52.560;13.566;2023-02-24T10:59:46;25.13;;;0.73;;
5678;SDS011;2862;52.560;13.566;2023-02-24T11:10:13;26.20;;;0.80;;
5678;SDS011;2862;52.560;13.566;2023-02-24T11:20:27;17.73;;;0.50;;
5678;SDS011;2862;52.560;13.566;2023-02-24T11:30:51;16.33;;;0.67;;
5678;SDS011;2862;52.560;13.566;2023-02-24T11:41:04;18.20;;;0.60;;
5678;SDS011;2862;52.560;13.566;2023-02-24T11:51:17;22.50;;;0.50;;
5678;SDS011;2862;52.560;13.566;2023-02-24T12:01:25;15.43;;;0.70;;
5678;SDS011;2862;52.560;13.566;2023-02-24T12:11:36;15.70;;;0.70;;
5678;SDS011;2862;52.560;13.566;2023-02-24T12:21:46;19.67;;;1.00;;
5678;SDS011;2862;52.560;13.566;2023-02-24T12:31:59;16.97;;;0.60;;
5678;SDS011;2862;52.560;13.566;2023-02-24T12:42:11;22.47;;;0.90;;
5678;SDS011;2862;52.560;13.566;2023-02-24T12:52:26;17.03;;;0.70;;
5678;SDS011;2862;52.560;13.566;2023-02-24T13:02:38;12.60;;;0.63;;
5678;SDS011;2862;52.560;13.566;2023-02-24T13:12:53;24.60;;;1.27;;
5678;SDS011;2862;52.560;13.566;2023-02-24T13:23:02;14.97;;;0.63;;
5678;SDS011;2862;52.560;13.566;2023-02-24T13:33:22;14.37;;;1.17;;
5678;SDS011;2862;52.560;13.566;2023-02-24T13:43:29;21.07;;;1.70;;
5678;SDS011;2862;52.560;13.566;2023-02-24T13:53:44;15.53;;;1.07;;
5678;SDS011;2862;52.560;13.566;2023-02-24T14:04:05;16.03;;;1.00;;
5678;SDS011;2862;52.560;13.566;2023-02-24T14:14:18;13.93;;;1.00;;
5678;SDS011;2862;52.560;13.566;2023-02-24T14:24:21;15.90;;;1.10;;
5678;SDS011;2862;52.560;13.566;2023-02-24T14:34:27;13.20;;;0.73;;
5678;SDS011;2862;52.560;13.566;2023-02-24T14:44:33;13.83;;;0.87;;
5678;SDS011;2862;52.560;13.566;2023-02-24T14:54:44;15.67;;;1.10;;
5678;SDS011;2862;52.560;13.566;2023-02-24T15:04:51;29.60;;;6.80;;
5678;SDS011;2862;52.560;13.566;2023-02-24T15:14:59;16.20;;;1.10;;
5678;SDS011;2862;52.560;13.566;2023-02-24T15:25:12;11.60;;;0.47;;
5678;SDS011;2862;52.560;13.566;2023-02-24T15:35:21;13.70;;;0.73;;
5678;SDS011;2862;52.560;13.566;2023-02-24T15:45:27;14.03;;;0.60;;
5678;SDS011;2862;52.560;13.566;2023-02-24T15:55:33;12.87;;;0.93;;
5678;SDS011;2862;52.560;13.566;2023-02-24T16:05:36;14.33;;;0.67;;
5678;SDS011;2862;52.560;13.566;2023-02-24T16:15:40;13.87;;;1.03;;
5678;SDS011;2862;52.560;13.566;2023-02-24T16:25:47;14.47;;;2.03;;
5678;SDS011;2862;52.560;13.566;2023-02-24T16:35:55;16.87;;;2.00;;
5678;SDS011;2862;52.560;13.566;2023-02-24T16:45:59;14.60;;;1.83;;
5678;SDS011;2862;52.560;13.566;2023-02-24T16:56:06;16.20;;;2.83;;
5678;SDS011;2862;52.560;13.566;2023-02-24T17:06:10;16.70;;;3.03;;
5678;SDS011;2862;52.560;13.566;2023-02-24T17:16:14;16.07;;;3.80;;
5678;SDS011;2862;52.560;13.566;2023-02-24T17:26:18;17.73;;;4.67;;
5678;SDS011;2862;52.560;13.566;2023-02-24T17:36:22;18.00;;;5.10;;
5678;SDS011;2862;52.560;13.566;2023-02-24T17:46:25;23.83;;;6.77;;
5678;SDS011;2862;52.560;13.566;2023-02-24T17:56:30;27.07;;;7.50;;
5678;SDS011;2862;52.560;13.566;2023-02-24T18:06:33;26.87;;;8.93;;
5678;SDS011;2862;52.560;13.566;2023-02-24T18:16:37;24.07;;;8.20;;
5678;SDS011;2862;52.560;13.566;2023-02-24T18:26:40;26.07;;;9.80;;
5678;SDS011;2862;52.560;13.566;2023-02-24T18:36:44;26.90;;;10.83;;
5678;SDS011;2862;52.560;13.566;2023-02-24T18:46:47;30.33;;;11.63;;
5678;SDS011;2862;52.560;13.566;2023-02-24T18:56:51;33.13;;;13.47;;
5678;SDS011;2862;52.560;13.566;2023-02-24T19:06:54;32.67;;;13.10;;
5678;SDS011;2862;52.560;13.566;2023-02-24T19:16:59;33.27;;;13.50;;
5678;SDS011;2862;52.560;13.566;2023-02-24T19:27:02;36.23;;;14.20;;
5678;SDS011;2862;52.560;13.566;2023-02-24T19:37:06;34.07;;;15.30;;
5678;SDS011;2862;52.560;13.566;2023-02-24T19:47:09;33.00;;;15.17;;
5678;SDS011;2862;52.560;13.566;2023-02-24T19:57:13;38.30;;;15.10;;
5678;SDS011;2862;52.560;13.566;2023-02-24T20:07:16;32.70;;;14.80;;
5678;SDS011;2862;52.560;13.566;2023-02-24T20:17:20;35.03;;;16.40;;
5678;SDS011;2862;52.560;13.566;2023-02-24T20:27:23;36.67;;;16.20;;
5678;SDS011;2862;52.560;13.566;2023-02-24T20:37:28;32.97;;;15.50;;
5678;SDS011;2862;52.560;13.566;2023-02-24T20:47:30;32.73;;;14.90;;
5678;SDS011;2862;52.560;13.566;2023-02-24T20:57:34;42.80;;;16.30;;
5678;SDS011;2862;52.560;13.566;2023-02-24T21:07:37;34.47;;;16.43;;
5678;SDS011;2862;52.560;13.566;2023-02-24T21:17:41;42.10;;;16.53;;
5678;SDS011;2862;52.560;13.566;2023-02-24T21:27:44;37.37;;;17.27;;
5678;SDS011;2862;52.560;13.566;2023-02-24T21:37:50;32.30;;;14.80;;
5678;SDS011;2862;52.560;13.566;2023-02-24T21:47:54;37.23;;;16.40;;
5678;SDS011;2862;52.560;13.566;2023-02-24T21:57:58;38.17;;;15.17;;
5678;SDS011;2862;52.560;13.566;2023-02-24T22:08:02;40.10;;;16.20;;
5678;SDS011;2862;52.560;13.566;2023-02-24T22:18:06;35.50;;;14.20;;
5678;SDS011;2862;52.560;13.566;2023-02-24T22:28:09;33.17;;;14.47;;
5678;SDS011;2862;52.560;13.566;2023-02-24T22:38:14;37.10;;;14.37;;
5678;SDS011;2862;52.560;13.566;2023-02-24T22:48:17;31.97;;;12.50;;
5678;SDS011;2862;52.560;13.566;2023-02-24T22:58:21;39.53;;;13.23;;
5678;SDS011;2862;52.560;13.566;2023-02-24T23:08:25;26.77;;;10.07;;
5678;SDS011;2862;52.560;13.566;2023-02-24T23:18:30;41.30;;;9.87;;
5678;SDS011;2862;52.560;13.566;2023-02-24T23:28:35;27.30;;;5.67;;
5678;SDS011;2862;52.560;13.566;2023-02-24T23:38:40;23.60;;;4.60;;
5678;SDS011;2862;52.560;13.566;2023-02-24T23:48:43;23.87;;;2.87;;
5678;SDS011;2862;52.560;13.566;2023-02-24T23:58:49;25.20;;;1.90;;
